Time;durP1;ratioP1;P1;durP2;ratioP2;P2;SDS_P1;SDS_P2;PMS_P1;PMS_P2;Temp;Humidity;BMP_temperature;BMP_pressure;BME280_temperature;BME280_humidity;BME280_pressure;Samples;Min_cycle;Max_cycle;Signal;HPM_P1;HPM_P2
2020/12/01 00:01:52;;;;;;;33.00;20.55;;;;;;;3.87;63.04;101579.68;1782449;80;21091;-54
2020/12/01 00:04:19;;;;;;;29.87;20.17;;;;;;;3.89;63.04;101573.58;1782491;80;20960;-54
2020/12/01 00:06:48;;;;;;;28.50;18.12;;;;;;;3.89;62.95;101581.66;1782239;80;21058;-55
2020/12/01 00:09:16;;;;;;;28.17;18.60;;;;;;;3.89;62.97;101592.43;1782435;80;21180;-55
2020/12/01 00:11:44;;;;;;;26.90;16.93;;;;;;;3.89;62.76;101594.29;1782251;80;21017;-56
2020/12/01 00:14:12;;;;;;;27.75;17.10;;;;;;;3.86;62.92;101596.03;1782449;79;21158;-52
2020/12/01 00:16:46;;;;;;;27.50;15.98;;;;;;;3.86;62.83;101599.56;1782403;80;21043;-51
2020/12/01 00:19:14;;;;;;;25.75;16.55;;;;;;;3.83;62.84;101589.16;1782589;80;21559;-52
2020/12/01 00:21:46;;;;;;;26.40;16.42;;;;;;;3.82;63.11;101599.61;1782500;80;22056;-52
2020/12/01 00:24:14;;;;;;;25.25;16.27;;;;;;;3.86;63.02;101596.87;1782192;80;21126;-57
2020/12/01 00:26:43;;;;;;;24.70;15.78;;;;;;;3.88;62.91;101593.46;1782543;80;21208;-52
2020/12/01 00:29:11;;;;;;;22.30;14.58;;;;;;;3.89;62.85;101584.87;1782409;80;21900;-52
2020/12/01 00:31:40;;;;;;;23.83;14.40;;;;;;;3.91;62.82;101586.88;1782568;80;20932;-53
2020/12/01 00:34:10;;;;;;;20.82;14.40;;;;;;;3.92;62.84;101585.84;1782286;80;21184;-53
2020/12/01 00:36:37;;;;;;;18.57;12.98;;;;;;;3.94;62.73;101589.17;1782357;80;21122;-52
2020/12/01 00:39:07;;;;;;;19.67;13.22;;;;;;;3.93;62.70;101580.77;1782479;80;21201;-55
2020/12/01 00:41:36;;;;;;;16.80;11.45;;;;;;;3.93;62.74;101580.77;1782308;80;21152;-55
2020/12/01 00:44:05;;;;;;;19.10;13.18;;;;;;;3.95;62.72;101587.30;1782321;80;21138;-53
2020/12/01 00:46:33;;;;;;;18.60;12.35;;;;;;;3.91;62.56;101586.88;1782373;80;22243;-52
2020/12/01 00:49:01;;;;;;;17.87;12.45;;;;;;;3.88;62.62;101582.69;1782135;79;21035;-53
2020/12/01 00:51:30;;;;;;;19.02;11.55;;;;;;;3.87;62.64;101590.45;1782398;80;21382;-53
2020/12/01 00:53:58;;;;;;;17.85;12.35;;;;;;;3.87;62.85;101584.23;1782419;80;20948;-55
2020/12/01 00:56:26;;;;;;;17.35;11.83;;;;;;;3.87;62.68;101581.03;1782388;80;21499;-52
2020/12/01 00:58:54;;;;;;;15.15;10.75;;;;;;;3.87;62.68;101586.41;1782346;80;22283;-57
2020/12/01 01:01:26;;;;;;;17.25;10.98;;;;;;;3.84;62.81;101592.17;1781589;79;21588;-56
2020/12/01 01:03:55;;;;;;;15.25;10.85;;;;;;;3.80;62.89;101588.70;1752451;80;21004;-56
2020/12/01 01:06:23;;;;;;;17.05;11.20;;;;;;;3.76;62.99;101591.47;1782128;80;21000;-52
2020/12/01 01:08:50;;;;;;;16.62;11.08;;;;;;;3.72;63.08;101596.91;1782128;80;21043;-53
2020/12/01 01:11:28;;;;;;;16.32;11.43;;;;;;;3.69;63.06;101600.80;1782286;79;21378;-53
2020/12/01 01:13:57;;;;;;;16.77;11.43;;;;;;;3.67;63.24;101600.67;1782363;80;21075;-56
2020/12/01 01:16:25;;;;;;;17.95;11.90;;;;;;;3.66;63.34;101596.33;1781985;80;21131;-57
2020/12/01 01:18:53;;;;;;;15.88;11.45;;;;;;;3.66;63.41;101600.36;1782024;79;21178;-53
2020/12/01 01:21:23;;;;;;;18.15;12.47;;;;;;;3.65;63.60;101599.53;1782363;80;21142;-55
2020/12/01 01:23:52;;;;;;;17.05;11.35;;;;;;;3.66;63.76;101594.98;1782340;80;22809;-55
2020/12/01 01:26:20;;;;;;;17.35;11.70;;;;;;;3.73;63.72;101602.61;1752112;80;21083;-55
2020/12/01 01:28:48;;;;;;;16.75;12.23;;;;;;;3.75;63.74;101605.93;1782298;80;20901;-52
2020/12/01 01:31:21;;;;;;;16.87;11.73;;;;;;;3.79;63.71;101608.57;1782260;79;21222;-55
2020/12/01 01:33:48;;;;;;;16.45;11.95;;;;;;;3.80;63.70;101600.81;1782541;80;20929;-52
2020/12/01 01:36:16;;;;;;;16.87;11.73;;;;;;;3.80;63.68;101607.06;1782137;80;21184;-53
2020/12/01 01:38:44;;;;;;;17.77;12.50;;;;;;;3.81;63.42;101597.13;1782412;79;21196;-54
2020/12/01 01:41:12;;;;;;;16.77;11.73;;;;;;;3.77;63.57;101591.27;1782306;80;21020;-52
2020/12/01 01:43:40;;;;;;;18.07;11.35;;;;;;;3.78;63.60;101593.45;1782366;80;20941;-51
2020/12/01 01:46:40;;;;;;;15.28;11.35;;;;;;;3.76;63.64;101588.78;1782322;80;21075;-53
2020/12/01 01:49:19;;;;;;;14.65;11.15;;;;;;;3.74;63.55;101591.64;1727017;82;23467;-53
2020/12/01 01:51:51;;;;;;;16.85;12.00;;;;;;;3.69;63.72;101580.61;1748159;82;21083;-53
2020/12/01 01:54:18;;;;;;;14.50;10.82;;;;;;;3.69;63.68;101578.43;1748240;82;21183;-53
2020/12/01 01:56:50;;;;;;;18.20;12.45;;;;;;;3.68;63.64;101575.42;1748136;80;21079;-52
2020/12/01 01:59:18;;;;;;;17.35;11.55;;;;;;;3.69;63.59;101582.47;1748133;80;21606;-55
2020/12/01 02:01:47;;;;;;;17.20;12.58;;;;;;;3.68;63.80;101578.11;1748248;80;21345;-55
2020/12/01 02:04:15;;;;;;;19.20;12.30;;;;;;;3.68;63.75;101577.60;1748066;82;21916;-57
2020/12/01 02:06:50;;;;;;;18.70;12.90;;;;;;;3.69;63.59;101583.30;1748253;82;20988;-56
2020/12/01 02:09:26;;;;;;;18.37;13.85;;;;;;;3.66;63.71;101574.28;1748165;81;21177;-54
2020/12/01 02:11:57;;;;;;;17.65;12.80;;;;;;;3.67;63.86;101569.72;1748269;80;21100;-54
2020/12/01 02:14:44;;;;;;;19.65;14.13;;;;;;;3.68;63.69;101578.11;1747833;82;21200;-56
2020/12/01 02:17:28;;;;;;;20.37;13.90;;;;;;;3.69;63.74;101592.72;1748135;82;21057;-53
2020/12/01 02:20:01;;;;;;;21.27;13.95;;;;;;;3.69;63.67;101611.56;1748383;82;21487;-54
2020/12/01 02:22:29;;;;;;;17.35;12.18;;;;;;;3.70;63.61;101599.80;1748030;82;20960;-54
2020/12/01 02:24:56;;;;;;;18.10;11.93;;;;;;;3.72;63.48;101599.08;1748195;81;21100;-56
2020/12/01 02:27:26;;;;;;;17.30;12.43;;;;;;;3.69;63.50;101602.66;1747984;80;21432;-55
2020/12/01 02:29:57;;;;;;;18.30;12.60;;;;;;;3.71;63.41;101600.63;1744945;82;21104;-54
2020/12/01 02:32:27;;;;;;;16.10;12.35;;;;;;;3.68;63.39;101609.06;1782169;80;20944;-55
2020/12/01 02:34:59;;;;;;;15.78;12.43;;;;;;;3.64;63.54;101609.95;1782172;80;21565;-53
2020/12/01 02:37:28;;;;;;;17.55;12.45;;;;;;;3.66;63.51;101621.38;1782337;80;20992;-54
2020/12/01 02:39:57;;;;;;;14.60;11.83;;;;;;;3.66;63.51;101620.55;1782225;79;21242;-54
2020/12/01 02:42:27;;;;;;;16.48;11.48;;;;;;;3.63;63.52;101613.16;1782307;80;21130;-52
2020/12/01 02:44:58;;;;;;;16.23;11.75;;;;;;;3.63;63.50;101609.63;1752607;80;21015;-53
2020/12/01 02:47:28;;;;;;;17.07;12.58;;;;;;;3.60;63.52;101613.55;1779270;80;21557;-51
2020/12/01 02:49:55;;;;;;;15.28;11.55;;;;;;;3.58;63.62;101612.88;1782212;80;21138;-51
2020/12/01 02:52:23;;;;;;;17.82;11.80;;;;;;;3.62;63.70;101617.39;1782225;79;21310;-50
2020/12/01 02:54:51;;;;;;;17.60;12.13;;;;;;;3.66;63.65;101618.69;1782142;80;21593;-53
2020/12/01 02:57:19;;;;;;;16.07;11.88;;;;;;;3.68;63.66;101619.32;1782278;80;20948;-51
2020/12/01 02:59:47;;;;;;;16.07;11.55;;;;;;;3.71;63.60;101620.81;1782367;80;22054;-54
2020/12/01 03:02:15;;;;;;;14.85;11.05;;;;;;;3.71;63.50;101616.78;1782168;80;21139;-54
2020/12/01 03:04:43;;;;;;;17.65;11.48;;;;;;;3.73;63.48;101618.75;1782173;80;21004;-54
2020/12/01 03:07:11;;;;;;;16.05;11.03;;;;;;;3.75;63.47;101625.64;1782069;80;21104;-54
2020/12/01 03:09:38;;;;;;;15.00;11.10;;;;;;;3.76;63.31;101623.26;1789401;79;21062;-54
2020/12/01 03:12:06;;;;;;;15.78;10.40;;;;;;;3.75;63.35;101622.08;1790987;80;21063;-54
2020/12/01 03:14:34;;;;;;;15.88;11.12;;;;;;;3.75;63.43;101620.73;1790897;80;21133;-50
2020/12/01 03:17:03;;;;;;;14.20;10.63;;;;;;;3.74;63.33;101633.36;1790883;79;21357;-52
2020/12/01 03:19:30;;;;;;;14.43;11.05;;;;;;;3.77;63.25;101628.95;1790895;80;21090;-51
2020/12/01 03:21:58;;;;;;;15.03;10.68;;;;;;;3.79;63.22;101626.06;1790911;80;20932;-52
2020/12/01 03:24:25;;;;;;;15.58;10.43;;;;;;;3.80;63.22;101629.08;1790709;80;21047;-50
2020/12/01 03:26:53;;;;;;;13.78;10.45;;;;;;;3.84;63.41;101631.72;1790904;79;21126;-52
2020/12/01 03:29:21;;;;;;;13.45;9.85;;;;;;;3.82;63.15;101629.73;1790977;80;21193;-52
2020/12/01 03:31:49;;;;;;;13.48;9.45;;;;;;;3.80;63.19;101629.94;1790967;80;20948;-52
2020/12/01 03:34:16;;;;;;;13.75;10.18;;;;;;;3.78;63.31;101628.45;1791010;80;20994;-53
2020/12/01 03:36:45;;;;;;;14.83;10.35;;;;;;;3.76;63.26;101629.16;1791071;80;21186;-51
2020/12/01 03:39:13;;;;;;;10.72;8.90;;;;;;;3.76;63.41;101631.34;1790936;80;20984;-54
2020/12/01 03:41:41;;;;;;;12.70;9.35;;;;;;;3.74;63.45;101625.80;1790996;79;21369;-53
2020/12/01 03:44:11;;;;;;;15.25;10.23;;;;;;;3.74;63.55;101627.15;1791069;80;21507;-52
2020/12/01 03:46:38;;;;;;;13.75;10.55;;;;;;;3.73;63.45;101623.63;1790912;79;21284;-54
2020/12/01 03:49:07;;;;;;;13.88;10.08;;;;;;;3.71;63.36;101624.34;1791017;79;21075;-54
2020/12/01 03:51:34;;;;;;;12.68;10.05;;;;;;;3.69;63.29;101626.87;1791015;80;21106;-54
2020/12/01 03:54:03;;;;;;;12.93;10.28;;;;;;;3.63;63.39;101623.09;1790880;79;21210;-54
2020/12/01 03:56:30;;;;;;;13.35;10.05;;;;;;;3.65;63.33;101626.44;1790794;80;20944;-53
2020/12/01 03:58:58;;;;;;;11.28;9.23;;;;;;;3.67;63.40;101630.28;1790902;80;20940;-53
2020/12/01 04:01:27;;;;;;;13.60;10.63;;;;;;;3.64;63.19;101618.02;1790872;80;20982;-54
2020/12/01 04:03:55;;;;;;;12.30;9.50;;;;;;;3.63;63.13;101621.74;1790972;80;21117;-54
2020/12/01 04:06:23;;;;;;;14.15;9.85;;;;;;;3.61;63.33;101623.80;1790945;79;21395;-54
2020/12/01 04:08:51;;;;;;;13.20;10.25;;;;;;;3.62;63.20;101618.22;1787381;79;20924;-54
2020/12/01 04:11:18;;;;;;;13.75;10.60;;;;;;;3.64;63.17;101618.02;1782416;80;20956;-54
2020/12/01 04:13:46;;;;;;;12.35;9.65;;;;;;;3.65;63.11;101618.38;1782235;80;21567;-53
2020/12/01 04:16:14;;;;;;;13.10;9.80;;;;;;;3.62;63.13;101616.04;1782390;80;21125;-56
2020/12/01 04:18:41;;;;;;;15.93;10.63;;;;;;;3.58;63.15;101611.54;1782499;79;21490;-56
2020/12/01 04:21:09;;;;;;;13.95;10.53;;;;;;;3.55;63.26;101607.06;1782289;80;21132;-53
2020/12/01 04:23:37;;;;;;;12.98;9.63;;;;;;;3.53;63.33;101606.41;1782163;80;21063;-53
2020/12/01 04:26:04;;;;;;;13.53;9.43;;;;;;;3.50;63.39;101606.80;1782218;80;21139;-51
2020/12/01 04:28:32;;;;;;;11.95;9.38;;;;;;;3.48;63.50;101609.66;1782301;80;21080;-53
2020/12/01 04:31:00;;;;;;;11.33;8.80;;;;;;;3.48;63.59;101615.55;1782004;79;21381;-54
2020/12/01 04:33:29;;;;;;;11.22;8.73;;;;;;;3.48;63.56;101617.72;1782387;80;21499;-50
2020/12/01 04:35:58;;;;;;;11.55;8.65;;;;;;;3.48;63.74;101610.17;1782201;80;20949;-54
2020/12/01 04:38:26;;;;;;;10.55;8.28;;;;;;;3.47;63.76;101602.61;1782082;80;21079;-53
2020/12/01 04:40:54;;;;;;;11.45;8.60;;;;;;;3.50;63.90;101616.22;1782324;80;21008;-53
2020/12/01 04:43:31;;;;;;;11.05;8.38;;;;;;;3.51;63.92;101614.67;1782337;80;21350;-55
2020/12/01 04:45:59;;;;;;;9.20;7.65;;;;;;;3.52;63.94;101624.41;1782261;80;21380;-55
2020/12/01 04:48:35;;;;;;;7.95;6.65;;;;;;;3.56;63.85;101624.36;1751769;80;21549;-55
2020/12/01 04:51:23;;;;;;;10.80;8.00;;;;;;;3.56;63.73;101616.28;1782272;79;20989;-55
2020/12/01 04:54:09;;;;;;;10.25;7.90;;;;;;;3.53;63.77;101613.96;1782230;80;21158;-56
2020/12/01 04:56:51;;;;;;;9.23;7.53;;;;;;;3.54;63.81;101613.45;1781772;80;21196;-56
2020/12/01 05:00:15;;;;;;;8.63;7.10;;;;;;;3.56;63.91;101621.67;1782138;79;20936;-58
2020/12/01 05:03:12;;;;;;;9.50;6.85;;;;;;;3.61;63.92;101622.45;1782469;80;21534;-56
2020/12/01 05:08:38;;;;;;;9.45;6.65;;;;;;;3.60;63.85;101627.52;1781842;79;21059;-50
2020/12/01 05:11:23;;;;;;;8.18;6.58;;;;;;;3.62;63.76;101636.23;1772557;80;22334;-56
2020/12/01 05:14:28;;;;;;;7.97;6.13;;;;;;;3.61;63.82;101624.63;1857113;75;22768;-55
2020/12/01 05:17:10;;;;;;;9.20;7.05;;;;;;;3.53;63.74;101626.06;1835744;76;20881;-54
2020/12/01 05:19:44;;;;;;;9.65;7.37;;;;;;;3.53;63.83;101634.14;1840698;76;21251;-54
2020/12/01 05:22:16;;;;;;;9.30;6.25;;;;;;;3.54;64.02;101637.66;1834606;76;21582;-54
2020/12/01 05:24:49;;;;;;;9.18;6.78;;;;;;;3.52;64.02;101625.75;1811528;77;21000;-54
2020/12/01 05:27:24;;;;;;;9.15;7.65;;;;;;;3.51;63.95;101628.12;1838656;77;21035;-55
2020/12/01 05:30:02;;;;;;;8.95;6.25;;;;;;;3.51;64.15;101626.78;1849306;77;21051;-52
2020/12/01 05:32:33;;;;;;;;;;;;;;;3.54;64.02;101641.70;1863625;77;21360;-55
2020/12/01 05:35:19;;;;;;;8.10;6.25;;;;;;;3.53;64.04;101638.18;1826080;77;20156;-53
2020/12/01 05:37:53;;;;;;;8.35;6.50;;;;;;;3.47;64.19;101629.52;1825279;78;21577;-55
2020/12/01 05:40:21;;;;;;;8.70;6.33;;;;;;;3.48;64.29;101625.80;1820624;78;21624;-54
2020/12/01 05:42:49;;;;;;;7.95;6.05;;;;;;;3.50;64.27;101626.46;1856999;77;21130;-54
2020/12/01 05:45:28;;;;;;;8.90;6.40;;;;;;;3.48;64.38;101628.48;1869523;76;21356;-54
2020/12/01 05:48:24;;;;;;;9.23;7.20;;;;;;;3.45;64.48;101638.30;1835960;76;21643;-54
2020/12/01 05:51:02;;;;;;;7.33;5.85;;;;;;;3.46;64.43;101639.96;1840608;77;21153;-53
2020/12/01 05:53:29;;;;;;;8.03;6.28;;;;;;;3.51;64.37;101637.55;1807724;79;21157;-53
2020/12/01 05:56:10;;;;;;;12.07;6.65;;;;;;;3.55;64.23;101638.84;1812390;78;21133;-53
2020/12/01 05:58:44;;;;;;;9.33;6.78;;;;;;;3.57;64.29;101642.69;1808157;78;21543;-53
2020/12/01 06:01:13;;;;;;;9.98;7.03;;;;;;;3.58;64.05;101643.00;1807544;79;21586;-57
2020/12/01 06:04:05;;;;;;;7.83;5.78;;;;;;;3.55;63.93;101637.50;1807363;79;21129;-58
2020/12/01 06:07:15;;;;;;;10.95;6.40;;;;;;;3.56;63.97;101641.85;1807130;79;20978;-56
2020/12/01 06:10:18;;;;;;;8.90;6.22;;;;;;;3.56;63.98;101645.89;1747311;80;21216;-57
2020/12/01 06:13:29;;;;;;;7.00;5.78;;;;;;;3.55;64.10;101651.47;1777201;80;21719;-56
2020/12/01 06:16:17;;;;;;;7.85;5.67;;;;;;;3.55;64.31;101653.64;1781778;80;20954;-55
2020/12/01 06:19:30;;;;;;;8.95;5.75;;;;;;;3.53;64.10;101652.98;1781821;79;21025;-56
2020/12/01 06:22:24;;;;;;;8.00;5.92;;;;;;;3.48;64.20;101651.88;1781748;80;20931;-57
2020/12/01 06:25:31;;;;;;;6.75;5.53;;;;;;;3.41;64.28;101650.45;1779977;79;21180;-56
2020/12/01 06:28:23;;;;;;;6.78;5.37;;;;;;;3.38;64.16;101646.77;1781258;80;21629;-57
2020/12/01 06:31:13;;;;;;;6.35;5.03;;;;;;;3.34;64.27;101640.92;1780914;80;21132;-60
2020/12/01 06:34:33;;;;;;;6.22;4.92;;;;;;;3.34;64.35;101657.58;1781346;79;21588;-55
2020/12/01 06:37:29;;;;;;;5.92;4.97;;;;;;;3.31;64.39;101653.92;1781285;80;21006;-55
2020/12/01 06:40:20;;;;;;;6.08;4.05;;;;;;;3.28;64.51;101661.01;1761600;78;21087;-58
2020/12/01 06:42:54;;;;;;;6.92;4.62;;;;;;;3.29;64.56;101654.60;1719353;77;21363;-67
2020/12/01 06:45:33;;;;;;;5.78;3.90;;;;;;;3.29;64.48;101651.41;1702694;83;21178;-59
2020/12/01 06:48:23;;;;;;;4.92;3.75;;;;;;;3.32;64.45;101656.42;1696662;84;21193;-64
2020/12/01 06:50:56;;;;;;;5.25;3.87;;;;;;;3.33;64.41;101659.95;1696799;83;21188;-61
2020/12/01 06:53:35;;;;;;;5.75;4.12;;;;;;;3.36;64.32;101659.59;1673432;84;21161;-60
2020/12/01 06:56:14;;;;;;;5.12;3.58;;;;;;;3.37;64.34;101667.98;1697083;84;21365;-58
2020/12/01 06:58:44;;;;;;;4.70;3.62;;;;;;;3.37;64.59;101665.28;1700933;83;21088;-57
2020/12/01 07:01:29;;;;;;;5.85;3.83;;;;;;;3.43;64.59;101667.73;1709783;83;21174;-57
2020/12/01 07:04:14;;;;;;;6.97;3.90;;;;;;;3.47;64.36;101667.19;1709122;84;21174;-59
2020/12/01 07:06:59;;;;;;;4.75;3.15;;;;;;;3.50;64.56;101667.34;1709166;84;21243;-57
2020/12/01 07:09:42;;;;;;;6.40;3.08;;;;;;;3.53;64.37;101659.70;1708972;84;22219;-63
2020/12/01 07:12:22;;;;;;;3.77;3.17;;;;;;;3.55;64.15;101671.14;1708699;84;21274;-59
2020/12/01 07:15:28;;;;;;;3.60;2.45;;;;;;;3.57;64.15;101666.39;1709488;84;20962;-57
2020/12/01 07:18:30;;;;;;;2.77;2.55;;;;;;;3.58;63.79;101668.05;1709467;84;21207;-63
2020/12/01 07:23:36;;;;;;;3.53;2.67;;;;;;;3.64;63.78;101674.55;1845568;77;22769;-60
2020/12/01 07:26:20;;;;;;;2.80;2.50;;;;;;;3.57;63.76;101669.08;1820455;78;21556;-69
2020/12/01 07:28:55;;;;;;;3.08;2.35;;;;;;;3.51;63.76;101659.59;1823092;78;22796;-59
2020/12/01 07:31:30;;;;;;;2.33;2.10;;;;;;;3.47;63.74;101663.15;1793832;78;20978;-57
2020/12/01 07:34:19;;;;;;;2.72;2.45;;;;;;;3.49;63.87;101663.78;1823431;78;20954;-64
2020/12/01 07:36:51;;;;;;;3.27;2.70;;;;;;;3.51;64.01;101666.31;1823327;78;20962;-60
2020/12/01 07:39:26;;;;;;;2.12;1.92;;;;;;;3.52;64.06;101660.73;1822989;78;20975;-59
2020/12/01 07:42:00;;;;;;;2.63;2.13;;;;;;;3.56;63.84;101658.52;1823447;78;21436;-62
2020/12/01 07:44:31;;;;;;;2.98;2.05;;;;;;;3.59;63.74;101655.43;1822862;78;21340;-61
2020/12/01 07:47:16;;;;;;;2.60;2.00;;;;;;;3.59;63.89;101658.95;1823448;78;21648;-62
2020/12/01 07:49:56;;;;;;;2.80;2.37;;;;;;;3.61;63.59;101660.13;1823329;78;21150;-56
2020/12/01 07:52:40;;;;;;;2.70;2.42;;;;;;;3.58;63.69;101656.45;1796640;78;21196;-56
2020/12/01 07:55:28;;;;;;;2.92;2.37;;;;;;;3.55;63.85;101657.69;1823305;78;21386;-53
2020/12/01 07:58:01;;;;;;;2.83;1.98;;;;;;;3.55;64.05;101650.95;1778937;78;21936;-54
2020/12/01 08:00:31;;;;;;;2.98;2.08;;;;;;;3.56;63.72;101645.05;1823116;78;21604;-57
2020/12/01 08:03:10;;;;;;;2.35;1.72;;;;;;;3.59;63.71;101646.01;1822667;78;21728;-56
2020/12/01 08:05:38;;;;;;;2.55;1.92;;;;;;;3.62;63.74;101655.06;1820288;78;21049;-58
2020/12/01 08:08:08;;;;;;;2.85;1.80;;;;;;;3.63;63.84;101652.18;1809836;78;22247;-56
2020/12/01 08:10:36;;;;;;;2.83;2.00;;;;;;;3.63;63.85;101655.38;1789935;80;21203;-57
2020/12/01 08:13:05;;;;;;;2.55;1.82;;;;;;;3.67;63.94;101653.16;1789867;80;21615;-56
2020/12/01 08:15:34;;;;;;;1.55;1.45;;;;;;;3.72;63.58;101652.92;1790086;80;21603;-58
2020/12/01 08:18:05;;;;;;;2.67;1.72;;;;;;;3.73;63.33;101644.33;1790366;80;21124;-57
2020/12/01 08:20:33;;;;;;;2.20;1.80;;;;;;;3.70;63.40;101644.20;1790673;80;21431;-57
2020/12/01 08:23:20;;;;;;;1.75;1.65;;;;;;;3.72;63.39;101655.61;1721860;82;21187;-57
2020/12/01 08:26:06;;;;;;;1.50;1.40;;;;;;;3.76;63.26;101654.73;1782787;80;21606;-56
2020/12/01 08:28:42;;;;;;;2.55;1.92;;;;;;;3.78;63.09;101654.02;1782499;80;21073;-57
2020/12/01 08:31:43;;;;;;;2.47;1.90;;;;;;;3.81;63.28;101658.52;1782724;80;20962;-54
2020/12/01 08:34:45;;;;;;;1.60;1.45;;;;;;;3.82;63.08;101658.84;1782436;80;22731;-57
2020/12/01 08:37:31;;;;;;;2.47;1.50;;;;;;;3.81;63.30;101648.27;1782202;80;21095;-57
2020/12/01 08:40:13;;;;;;;1.72;1.57;;;;;;;3.83;63.38;101644.86;1781576;80;21199;-56
2020/12/01 08:42:58;;;;;;;1.98;1.55;;;;;;;3.80;63.61;101651.48;1782052;80;21592;-56
2020/12/01 08:45:38;;;;;;;1.98;1.57;;;;;;;3.83;63.60;101651.08;1782210;80;21128;-58
2020/12/01 08:48:09;;;;;;;1.70;1.52;;;;;;;3.85;63.63;101649.53;1782031;80;21205;-58
2020/12/01 08:50:38;;;;;;;2.52;1.57;;;;;;;3.88;63.68;101648.66;1781512;80;21612;-57
2020/12/01 08:53:16;;;;;;;1.92;1.70;;;;;;;3.88;63.47;101639.23;1781872;80;21525;-52
2020/12/01 08:55:52;;;;;;;3.33;1.70;;;;;;;3.90;63.57;101648.45;1781548;80;21519;-60
2020/12/01 08:58:39;;;;;;;2.85;1.85;;;;;;;3.92;63.41;101645.08;1782034;80;21573;-64
2020/12/01 09:01:13;;;;;;;2.72;1.52;;;;;;;3.93;63.33;101649.95;1775912;79;21576;-55
2020/12/01 09:03:55;;;;;;;2.30;2.02;;;;;;;3.94;63.37;101643.53;1785057;79;21141;-58
2020/12/01 09:06:34;;;;;;;3.92;1.82;;;;;;;3.94;63.21;101640.33;1780988;79;21187;-60
2020/12/01 09:09:14;;;;;;;2.33;2.05;;;;;;;3.94;63.17;101640.33;1779264;78;21070;-57
2020/12/01 09:14:35;;;;;;;2.85;1.92;;;;;;;3.94;63.61;101636.80;1772174;80;21852;-56
2020/12/01 09:17:02;;;;;;;2.33;1.70;;;;;;;3.99;63.56;101635.72;1744782;82;21235;-61
2020/12/01 09:22:27;;;;;;;1.13;1.10;;;;;;;4.02;63.30;101624.06;1746521;82;21167;-66
2020/12/01 09:25:15;;;;;;;2.67;2.15;;;;;;;4.07;63.52;101620.28;1750566;82;21611;-59
2020/12/01 09:27:44;;;;;;;1.65;1.32;;;;;;;4.10;63.28;101615.02;1718400;82;21389;-56
2020/12/01 09:30:37;;;;;;;2.42;1.95;;;;;;;4.14;63.13;101618.48;1769151;79;21210;-58
2020/12/01 09:33:08;;;;;;;2.83;2.15;;;;;;;4.18;62.96;101612.72;1758322;80;21120;-57
2020/12/01 09:35:36;;;;;;;1.70;1.30;;;;;;;4.19;62.68;101606.30;1781485;79;21115;-59
2020/12/01 09:38:04;;;;;;;2.08;1.60;;;;;;;4.18;62.41;101612.20;1791154;79;21234;-60
2020/12/01 09:40:34;;;;;;;2.05;1.80;;;;;;;4.15;62.62;101609.89;1800308;79;21201;-57
2020/12/01 09:43:26;;;;;;;2.08;1.52;;;;;;;4.18;62.58;101603.30;1800362;79;21043;-58
2020/12/01 09:45:52;;;;;;;2.25;1.52;;;;;;;4.16;62.24;101596.25;1784374;79;21179;-63
2020/12/01 09:50:54;;;;;;;1.57;1.30;;;;;;;4.19;62.27;101595.53;1769201;80;21067;-56
2020/12/01 09:53:30;;;;;;;2.40;1.62;;;;;;;4.21;62.09;101593.47;1782646;80;21978;-53
2020/12/01 09:56:02;;;;;;;1.67;1.57;;;;;;;4.19;62.10;101595.53;1781823;80;21182;-56
2020/12/01 10:09:37;;;;;;;1.80;1.50;;;;;;;4.19;62.10;101589.63;1754443;80;21196;-60
2020/12/01 10:17:48;;;;;;;1.47;1.37;;;;;;;4.13;62.16;101592.58;1778581;80;21202;-60
2020/12/01 10:23:59;;;;;;;2.77;2.02;;;;;;;4.16;62.45;101579.26;1783007;80;21915;-52
2020/12/01 10:34:11;;;;;;;4.72;2.17;;;;;;;4.25;61.90;101583.98;1754413;81;21370;-58
2020/12/01 10:36:24;;;;;;;2.98;2.60;;;;;;;4.18;62.17;101579.05;1760084;80;21178;-58
2020/12/01 10:38:52;;;;;;;1.98;1.67;;;;;;;4.14;62.42;101585.33;1780188;80;20985;-57
2020/12/01 10:41:32;;;;;;;2.65;1.80;;;;;;;4.13;62.48;101589.88;1780002;80;21037;-63
2020/12/01 10:44:02;;;;;;;4.30;3.90;;;;;;;4.15;62.35;101583.78;1772855;80;21526;-58
2020/12/01 10:46:29;;;;;;;2.50;2.30;;;;;;;4.16;62.26;101576.56;1765634;80;21377;-57
2020/12/01 10:48:57;;;;;;;2.00;1.52;;;;;;;4.16;62.45;101574.70;1755702;81;21922;-56
2020/12/01 10:51:25;;;;;;;2.45;1.90;;;;;;;4.16;62.49;101573.35;1755515;81;21150;-63
2020/12/01 10:53:53;;;;;;;2.08;1.62;;;;;;;4.16;62.56;101573.35;1755677;81;21040;-57
2020/12/01 10:56:21;;;;;;;2.10;1.90;;;;;;;4.18;62.57;101570.97;1755539;81;21214;-59
2020/12/01 10:58:49;;;;;;;2.77;1.90;;;;;;;4.19;62.46;101573.47;1755469;81;21169;-58
2020/12/01 11:01:17;;;;;;;2.37;2.08;;;;;;;4.21;62.45;101569.22;1755735;81;21155;-60
2020/12/01 11:03:45;;;;;;;2.30;2.10;;;;;;;4.22;62.49;101569.56;1755531;81;21143;-57
2020/12/01 11:06:13;;;;;;;2.45;1.90;;;;;;;4.25;62.45;101568.64;1766786;80;21592;-58
2020/12/01 11:08:40;;;;;;;1.87;1.70;;;;;;;4.23;62.27;101560.45;1784805;80;21580;-57
2020/12/01 11:11:08;;;;;;;3.42;1.72;;;;;;;4.18;62.31;101558.33;1734668;82;22278;-61
2020/12/01 11:13:37;;;;;;;2.58;1.92;;;;;;;4.19;62.49;101557.30;1737600;82;20945;-59
2020/12/01 11:16:07;;;;;;;3.00;1.77;;;;;;;4.20;62.52;101552.74;1684943;83;21021;-57
2020/12/01 11:18:35;;;;;;;1.87;1.65;;;;;;;4.21;62.67;101547.19;1781577;80;21559;-59
2020/12/01 11:21:03;;;;;;;2.25;1.87;;;;;;;4.25;62.70;101551.65;1779140;79;21212;-65
2020/12/01 11:23:30;;;;;;;2.50;1.90;;;;;;;4.26;62.73;101553.31;1778874;79;22240;-57
2020/12/01 11:25:59;;;;;;;2.35;1.62;;;;;;;4.26;62.78;101554.17;1788954;79;20969;-55
2020/12/01 11:28:27;;;;;;;2.47;2.20;;;;;;;4.27;62.60;101553.14;1780775;79;20983;-58
2020/12/01 11:30:55;;;;;;;2.30;1.80;;;;;;;4.27;62.69;101542.88;1779273;79;21056;-58
2020/12/01 11:33:24;;;;;;;2.90;2.10;;;;;;;4.23;62.48;101547.81;1773289;79;21171;-61
2020/12/01 11:35:52;;;;;;;2.47;1.70;;;;;;;4.22;62.76;101551.53;1781503;80;21355;-60
2020/12/01 11:38:20;;;;;;;2.00;1.80;;;;;;;4.25;62.74;101555.69;1779073;79;21524;-59
2020/12/01 11:40:47;;;;;;;2.85;2.25;;;;;;;4.26;62.96;101553.31;1770750;79;21116;-59
2020/12/01 11:43:16;;;;;;;2.62;2.15;;;;;;;4.26;62.88;101562.73;1780369;79;21141;-58
2020/12/01 11:45:44;;;;;;;4.00;2.27;;;;;;;4.26;63.00;101557.35;1780436;79;21627;-55
2020/12/01 11:48:11;;;;;;;2.58;2.37;;;;;;;4.28;63.04;101561.53;1778047;79;21349;-59
2020/12/01 11:50:39;;;;;;;2.12;1.92;;;;;;;4.29;63.07;101555.11;1768506;79;22451;-57
2020/12/01 11:53:07;;;;;;;2.55;2.05;;;;;;;4.33;63.10;101556.91;1785935;79;21155;-57
2020/12/01 11:55:36;;;;;;;3.50;2.10;;;;;;;4.33;63.00;101556.39;1764507;79;21076;-61
2020/12/01 11:58:04;;;;;;;4.40;2.08;;;;;;;4.35;62.82;101553.50;1757571;79;22335;-63
2020/12/01 12:00:33;;;;;;;2.37;1.85;;;;;;;4.34;63.01;101549.97;1750929;80;21369;-59
2020/12/01 12:03:02;;;;;;;2.90;2.22;;;;;;;4.34;63.08;101550.48;1744763;82;21041;-58
2020/12/01 12:05:29;;;;;;;2.95;2.20;;;;;;;4.32;63.17;101549.34;1751848;79;21132;-59
2020/12/01 12:07:57;;;;;;;2.20;1.95;;;;;;;4.32;63.21;101550.70;1777025;80;21140;-58
2020/12/01 12:10:24;;;;;;;2.35;1.62;;;;;;;4.32;63.22;101548.52;1759438;79;21520;-56
2020/12/01 12:12:52;;;;;;;2.62;2.35;;;;;;;4.31;63.15;101550.86;1781981;79;21187;-59
2020/12/01 12:15:21;;;;;;;2.90;2.22;;;;;;;4.26;63.17;101552.83;1780295;79;21081;-60
2020/12/01 12:17:49;;;;;;;2.58;2.00;;;;;;;4.25;63.37;101548.95;1798643;79;21051;-60
2020/12/01 12:20:16;;;;;;;2.08;1.80;;;;;;;4.26;63.48;101556.86;1760565;79;22050;-57
2020/12/01 12:22:45;;;;;;;2.58;2.15;;;;;;;4.29;63.57;101551.59;1760457;79;21415;-59
2020/12/01 12:25:13;;;;;;;3.00;2.30;;;;;;;4.29;63.55;101555.11;1771406;80;22686;-58
2020/12/01 12:27:41;;;;;;;4.05;1.95;;;;;;;4.29;63.63;101562.36;1771350;80;21682;-58
2020/12/01 12:30:09;;;;;;;2.85;2.20;;;;;;;4.27;63.76;101556.34;1761013;80;21082;-56
2020/12/01 12:32:43;;;;;;;2.00;1.77;;;;;;;4.24;63.84;101553.52;1745797;81;21637;-60
2020/12/01 12:35:11;;;;;;;2.12;1.92;;;;;;;4.20;63.89;101560.83;1750755;82;21107;-62
2020/12/01 12:37:38;;;;;;;2.58;1.80;;;;;;;4.15;64.08;101558.70;1750628;80;21210;-61
2020/12/01 12:40:06;;;;;;;2.50;1.72;;;;;;;4.13;64.07;101566.16;1750243;81;21315;-59